Terminal Aerodrome Forecast
Issued by NWS

Home | Current Version | Previous Version | Text Only | Print | Product List | Glossary On
Versions: 1 2 3 4 5 6 7 8 9 10 11 12 13 14 15 16
000
FTUS43 KJKL 312300
TAFSJS
TAF
KSJS 312332Z 0100/0124 VRB03KT P6SM FEW050 BKN250
     FM010900 00000KT P6SM BKN090
     FM011400 06005KT P6SM VCTS SCT025CB BKN040=

USA.gov is the U.S. government's official web portal to all federal, state and local government web resources and services.